KFHU

Sierra Vista Municipal-Libby AAF Airport

Fort Huachuca Sierra Vista, Arizona, USA
METAR KFHU 161458Z AUTO 00000KT 10SM CLR 07/M09 A3016 RMK AO2 SLP191 T00681091 53008
Observed Flight Rules
Nov-16 @ 14:58 UTC (an hour ago) Visual Flight Rules
Visibility Clouds
10 miles
  • Clear skies
Temperatures Readings
Current 7°C / 45°F
Dewpoint -9°C / 16°F
Humidity 31%
Altimeter 30.16" Hg
Pressure 1019.1 hPa
Elevation 1438
METAR KFHU 161458Z AUTO 00000KT 10SM CLR 07/M09 A3016 RMK AO2 SLP191 T00681091 53008
Observed Flight Rules
Nov-16 @ 14:58 UTC
(an hour ago)
VFR
Clouds
  • Clear skies
Temperature Dewpoint
7°C / 45°F -9°C / 16°F
Humidity Altimeter Pressure
31% 30.16" Hg 1019.1 hPa